sensor_id;sensor_type;location;lat;lon;timestamp;temperature;humidity
490;DHT22;231;48.120;11.576;2023-04-24T00:01:11;10.40;99.90
490;DHT22;231;48.120;11.576;2023-04-24T00:03:38;10.40;99.90
490;DHT22;231;48.120;11.576;2023-04-24T00:06:05;10.40;99.90
490;DHT22;231;48.120;11.576;2023-04-24T00:08:34;10.30;99.90
490;DHT22;231;48.120;11.576;2023-04-24T00:11:01;10.30;99.90
490;DHT22;231;48.120;11.576;2023-04-24T00:13:28;10.30;99.90
490;DHT22;231;48.120;11.576;2023-04-24T00:15:55;10.30;99.90
490;DHT22;231;48.120;11.576;2023-04-24T00:18:22;10.30;99.90
490;DHT22;231;48.120;11.576;2023-04-24T00:20:49;10.20;99.90
490;DHT22;231;48.120;11.576;2023-04-24T00:23:15;10.20;99.90
490;DHT22;231;48.120;11.576;2023-04-24T00:25:44;10.20;99.90
490;DHT22;231;48.120;11.576;2023-04-24T00:28:11;10.20;99.90
490;DHT22;231;48.120;11.576;2023-04-24T00:30:37;10.20;99.90
490;DHT22;231;48.120;11.576;2023-04-24T00:33:04;10.10;99.90
490;DHT22;231;48.120;11.576;2023-04-24T00:35:31;10.10;99.90
490;DHT22;231;48.120;11.576;2023-04-24T00:37:58;10.10;99.90
490;DHT22;231;48.120;11.576;2023-04-24T00:40:25;10.10;99.90
490;DHT22;231;48.120;11.576;2023-04-24T00:42:53;10.00;99.90
490;DHT22;231;48.120;11.576;2023-04-24T00:45:20;10.00;99.90
490;DHT22;231;48.120;11.576;2023-04-24T00:47:47;10.00;99.90
490;DHT22;231;48.120;11.576;2023-04-24T00:50:15;10.00;99.90
490;DHT22;231;48.120;11.576;2023-04-24T00:52:42;9.90;99.90
490;DHT22;231;48.120;11.576;2023-04-24T00:55:09;9.90;99.90
490;DHT22;231;48.120;11.576;2023-04-24T00:57:36;9.90;99.90
490;DHT22;231;48.120;11.576;2023-04-24T01:00:06;9.90;99.90
490;DHT22;231;48.120;11.576;2023-04-24T01:02:36;9.80;99.90
490;DHT22;231;48.120;11.576;2023-04-24T01:05:06;9.80;99.90
490;DHT22;231;48.120;11.576;2023-04-24T01:07:33;9.80;99.90
490;DHT22;231;48.120;11.576;2023-04-24T01:09:59;9.80;99.90
490;DHT22;231;48.120;11.576;2023-04-24T01:12:26;9.80;99.90
490;DHT22;231;48.120;11.576;2023-04-24T01:14:54;9.80;99.90
490;DHT22;231;48.120;11.576;2023-04-24T01:17:23;9.70;99.90
490;DHT22;231;48.120;11.576;2023-04-24T01:19:50;9.70;99.90
490;DHT22;231;48.120;11.576;2023-04-24T01:22:20;9.70;99.90
490;DHT22;231;48.120;11.576;2023-04-24T01:24:47;9.70;99.90
490;DHT22;231;48.120;11.576;2023-04-24T01:27:14;9.60;99.90
490;DHT22;231;48.120;11.576;2023-04-24T01:29:41;9.60;99.90
490;DHT22;231;48.120;11.576;2023-04-24T01:32:08;9.60;99.90
490;DHT22;231;48.120;11.576;2023-04-24T01:34:35;9.60;99.90
490;DHT22;231;48.120;11.576;2023-04-24T01:37:02;9.60;99.90
490;DHT22;231;48.120;11.576;2023-04-24T01:39:32;9.50;99.90
490;DHT22;231;48.120;11.576;2023-04-24T01:41:59;9.50;99.90
490;DHT22;231;48.120;11.576;2023-04-24T01:44:27;9.40;99.90
490;DHT22;231;48.120;11.576;2023-04-24T01:46:54;9.40;99.90
490;DHT22;231;48.120;11.576;2023-04-24T01:49:22;9.40;99.90
490;DHT22;231;48.120;11.576;2023-04-24T01:51:48;9.40;99.90
490;DHT22;231;48.120;11.576;2023-04-24T01:54:15;9.40;99.90
490;DHT22;231;48.120;11.576;2023-04-24T01:56:44;9.30;99.90
490;DHT22;231;48.120;11.576;2023-04-24T01:59:12;9.30;99.90
490;DHT22;231;48.120;11.576;2023-04-24T02:01:39;9.20;99.90
490;DHT22;231;48.120;11.576;2023-04-24T02:04:07;9.20;99.90
490;DHT22;231;48.120;11.576;2023-04-24T02:06:34;9.20;99.90
490;DHT22;231;48.120;11.576;2023-04-24T02:09:01;9.20;99.90
490;DHT22;231;48.120;11.576;2023-04-24T02:11:29;9.20;99.90
490;DHT22;231;48.120;11.576;2023-04-24T02:13:57;9.10;99.90
490;DHT22;231;48.120;11.576;2023-04-24T02:16:25;9.10;99.90
490;DHT22;231;48.120;11.576;2023-04-24T02:18:52;9.10;99.90
490;DHT22;231;48.120;11.576;2023-04-24T02:21:19;9.20;99.90
490;DHT22;231;48.120;11.576;2023-04-24T02:23:46;9.20;99.90
490;DHT22;231;48.120;11.576;2023-04-24T02:26:13;9.20;99.90
490;DHT22;231;48.120;11.576;2023-04-24T02:28:40;9.20;99.90
490;DHT22;231;48.120;11.576;2023-04-24T02:31:08;9.20;99.90
490;DHT22;231;48.120;11.576;2023-04-24T02:33:35;9.20;99.90
490;DHT22;231;48.120;11.576;2023-04-24T02:36:02;9.20;99.90
490;DHT22;231;48.120;11.576;2023-04-24T02:38:29;9.30;99.90
490;DHT22;231;48.120;11.576;2023-04-24T02:40:56;9.20;99.90
490;DHT22;231;48.120;11.576;2023-04-24T02:43:22;9.30;99.90
490;DHT22;231;48.120;11.576;2023-04-24T02:45:49;9.30;99.90
490;DHT22;231;48.120;11.576;2023-04-24T02:48:17;9.30;99.90
490;DHT22;231;48.120;11.576;2023-04-24T02:50:46;9.30;99.90
490;DHT22;231;48.120;11.576;2023-04-24T02:53:13;9.30;99.90
490;DHT22;231;48.120;11.576;2023-04-24T02:55:40;9.30;99.90
490;DHT22;231;48.120;11.576;2023-04-24T02:58:06;9.30;99.90
490;DHT22;231;48.120;11.576;2023-04-24T03:00:33;9.30;99.90
490;DHT22;231;48.120;11.576;2023-04-24T03:03:00;9.30;99.90
490;DHT22;231;48.120;11.576;2023-04-24T03:05:29;9.30;99.90
490;DHT22;231;48.120;11.576;2023-04-24T03:07:57;9.30;99.90
490;DHT22;231;48.120;11.576;2023-04-24T03:10:24;9.20;99.90
490;DHT22;231;48.120;11.576;2023-04-24T03:12:51;9.20;99.90
490;DHT22;231;48.120;11.576;2023-04-24T03:15:18;9.20;99.90
490;DHT22;231;48.120;11.576;2023-04-24T03:17:44;9.20;99.90
490;DHT22;231;48.120;11.576;2023-04-24T03:20:12;9.20;99.90
490;DHT22;231;48.120;11.576;2023-04-24T03:22:40;9.20;99.90
490;DHT22;231;48.120;11.576;2023-04-24T03:25:07;9.10;99.90
490;DHT22;231;48.120;11.576;2023-04-24T03:27:34;9.10;99.90
490;DHT22;231;48.120;11.576;2023-04-24T03:30:01;9.10;99.90
490;DHT22;231;48.120;11.576;2023-04-24T03:32:28;9.10;99.90
490;DHT22;231;48.120;11.576;2023-04-24T03:34:57;9.10;99.90
490;DHT22;231;48.120;11.576;2023-04-24T03:37:24;9.10;99.90
490;DHT22;231;48.120;11.576;2023-04-24T03:39:53;9.10;99.90
490;DHT22;231;48.120;11.576;2023-04-24T03:42:20;9.10;99.90
490;DHT22;231;48.120;11.576;2023-04-24T03:44:46;9.10;99.90
490;DHT22;231;48.120;11.576;2023-04-24T03:47:13;9.10;99.90
490;DHT22;231;48.120;11.576;2023-04-24T03:49:40;9.00;99.90
490;DHT22;231;48.120;11.576;2023-04-24T03:52:07;9.00;99.90
490;DHT22;231;48.120;11.576;2023-04-24T03:54:34;9.10;99.90
490;DHT22;231;48.120;11.576;2023-04-24T03:57:02;9.00;99.90
490;DHT22;231;48.120;11.576;2023-04-24T03:59:30;9.10;99.90
490;DHT22;231;48.120;11.576;2023-04-24T04:01:57;9.10;99.90
490;DHT22;231;48.120;11.576;2023-04-24T04:04:24;9.00;99.90
490;DHT22;231;48.120;11.576;2023-04-24T04:06:51;9.10;99.90
490;DHT22;231;48.120;11.576;2023-04-24T04:09:26;9.10;99.90
490;DHT22;231;48.120;11.576;2023-04-24T04:11:54;9.10;99.90
490;DHT22;231;48.120;11.576;2023-04-24T04:14:22;9.10;99.90
490;DHT22;231;48.120;11.576;2023-04-24T04:16:49;9.10;99.90
490;DHT22;231;48.120;11.576;2023-04-24T04:19:17;9.10;99.90
490;DHT22;231;48.120;11.576;2023-04-24T04:24:45;9.10;99.90
490;DHT22;231;48.120;11.576;2023-04-24T04:27:12;9.00;99.90
490;DHT22;231;48.120;11.576;2023-04-24T04:29:40;9.00;99.90
490;DHT22;231;48.120;11.576;2023-04-24T04:32:07;9.00;99.90
490;DHT22;231;48.120;11.576;2023-04-24T04:34:34;9.00;99.90
490;DHT22;231;48.120;11.576;2023-04-24T04:37:03;9.10;99.90
490;DHT22;231;48.120;11.576;2023-04-24T04:39:30;9.10;99.90
490;DHT22;231;48.120;11.576;2023-04-24T04:41:56;9.00;99.90
490;DHT22;231;48.120;11.576;2023-04-24T04:44:24;9.00;99.90
490;DHT22;231;48.120;11.576;2023-04-24T04:46:52;9.10;99.90
490;DHT22;231;48.120;11.576;2023-04-24T04:49:21;9.10;99.90
490;DHT22;231;48.120;11.576;2023-04-24T04:51:49;9.10;99.90
490;DHT22;231;48.120;11.576;2023-04-24T04:54:16;9.10;99.90
490;DHT22;231;48.120;11.576;2023-04-24T04:56:43;9.10;99.90
490;DHT22;231;48.120;11.576;2023-04-24T04:59:10;9.00;99.90
490;DHT22;231;48.120;11.576;2023-04-24T05:01:38;9.10;99.90
490;DHT22;231;48.120;11.576;2023-04-24T05:04:07;9.10;99.90
490;DHT22;231;48.120;11.576;2023-04-24T05:06:34;9.10;99.90
490;DHT22;231;48.120;11.576;2023-04-24T05:09:01;9.10;99.90
490;DHT22;231;48.120;11.576;2023-04-24T05:11:28;9.20;99.90
490;DHT22;231;48.120;11.576;2023-04-24T05:13:56;9.20;99.90
490;DHT22;231;48.120;11.576;2023-04-24T05:16:23;9.20;99.90
490;DHT22;231;48.120;11.576;2023-04-24T05:18:50;9.20;99.90
490;DHT22;231;48.120;11.576;2023-04-24T05:21:18;9.20;99.90
490;DHT22;231;48.120;11.576;2023-04-24T05:23:45;9.30;99.90
490;DHT22;231;48.120;11.576;2023-04-24T05:26:13;9.30;99.90
490;DHT22;231;48.120;11.576;2023-04-24T05:28:40;9.40;99.90
490;DHT22;231;48.120;11.576;2023-04-24T05:31:07;9.30;99.90
490;DHT22;231;48.120;11.576;2023-04-24T05:33:34;9.30;99.90
490;DHT22;231;48.120;11.576;2023-04-24T05:36:01;9.40;99.90
490;DHT22;231;48.120;11.576;2023-04-24T05:38:29;9.40;99.90
490;DHT22;231;48.120;11.576;2023-04-24T05:40:56;9.50;99.90
490;DHT22;231;48.120;11.576;2023-04-24T05:43:23;9.60;99.90
490;DHT22;231;48.120;11.576;2023-04-24T05:45:50;9.60;99.90
490;DHT22;231;48.120;11.576;2023-04-24T05:48:18;9.70;99.90
490;DHT22;231;48.120;11.576;2023-04-24T05:50:47;9.70;99.90
490;DHT22;231;48.120;11.576;2023-04-24T05:53:14;9.80;99.90
490;DHT22;231;48.120;11.576;2023-04-24T05:55:42;9.70;99.90
490;DHT22;231;48.120;11.576;2023-04-24T05:58:09;9.70;99.90
490;DHT22;231;48.120;11.576;2023-04-24T06:00:36;9.70;99.90
490;DHT22;231;48.120;11.576;2023-04-24T06:03:05;9.70;99.90
490;DHT22;231;48.120;11.576;2023-04-24T06:05:33;9.80;99.90
490;DHT22;231;48.120;11.576;2023-04-24T06:08:00;9.90;99.90
490;DHT22;231;48.120;11.576;2023-04-24T06:10:27;10.10;99.90
490;DHT22;231;48.120;11.576;2023-04-24T06:12:55;10.20;99.90
490;DHT22;231;48.120;11.576;2023-04-24T06:15:26;10.30;99.90
490;DHT22;231;48.120;11.576;2023-04-24T06:17:53;10.50;99.90
490;DHT22;231;48.120;11.576;2023-04-24T06:20:20;10.70;99.90
490;DHT22;231;48.120;11.576;2023-04-24T06:22:47;10.80;99.90
490;DHT22;231;48.120;11.576;2023-04-24T06:25:14;11.00;99.90
490;DHT22;231;48.120;11.576;2023-04-24T06:27:43;11.10;99.90
490;DHT22;231;48.120;11.576;2023-04-24T06:30:29;11.20;99.90
490;DHT22;231;48.120;11.576;2023-04-24T06:32:56;11.20;99.90
490;DHT22;231;48.120;11.576;2023-04-24T06:35:23;11.20;99.90
490;DHT22;231;48.120;11.576;2023-04-24T06:37:50;11.20;99.90
490;DHT22;231;48.120;11.576;2023-04-24T06:40:17;11.20;99.90
490;DHT22;231;48.120;11.576;2023-04-24T06:42:45;11.40;99.90
490;DHT22;231;48.120;11.576;2023-04-24T06:45:12;11.50;99.90
490;DHT22;231;48.120;11.576;2023-04-24T06:47:40;11.70;99.90
490;DHT22;231;48.120;11.576;2023-04-24T06:50:08;11.90;99.90
490;DHT22;231;48.120;11.576;2023-04-24T06:52:35;12.10;99.90
490;DHT22;231;48.120;11.576;2023-04-24T06:55:02;12.30;99.90
490;DHT22;231;48.120;11.576;2023-04-24T06:57:29;12.60;99.90
490;DHT22;231;48.120;11.576;2023-04-24T06:59:56;12.90;99.90
490;DHT22;231;48.120;11.576;2023-04-24T07:02:23;13.30;99.90
490;DHT22;231;48.120;11.576;2023-04-24T07:04:51;13.90;99.90
490;DHT22;231;48.120;11.576;2023-04-24T07:07:18;14.60;99.90
490;DHT22;231;48.120;11.576;2023-04-24T07:09:46;15.30;99.90
490;DHT22;231;48.120;11.576;2023-04-24T07:12:13;15.70;99.90
490;DHT22;231;48.120;11.576;2023-04-24T07:14:42;15.70;99.90
490;DHT22;231;48.120;11.576;2023-04-24T07:17:09;15.70;99.90
490;DHT22;231;48.120;11.576;2023-04-24T07:19:37;15.50;99.90
490;DHT22;231;48.120;11.576;2023-04-24T07:22:05;15.30;99.90
490;DHT22;231;48.120;11.576;2023-04-24T07:24:32;15.10;99.90
490;DHT22;231;48.120;11.576;2023-04-24T07:26:59;15.10;99.90
490;DHT22;231;48.120;11.576;2023-04-24T07:29:26;15.30;99.90
490;DHT22;231;48.120;11.576;2023-04-24T07:31:54;15.60;99.90
490;DHT22;231;48.120;11.576;2023-04-24T07:34:22;16.00;99.90
490;DHT22;231;48.120;11.576;2023-04-24T07:36:49;16.20;99.90
490;DHT22;231;48.120;11.576;2023-04-24T07:39:18;16.30;99.90
490;DHT22;231;48.120;11.576;2023-04-24T07:41:45;16.10;99.90
490;DHT22;231;48.120;11.576;2023-04-24T07:44:12;15.70;99.90
490;DHT22;231;48.120;11.576;2023-04-24T07:46:39;15.30;98.10
490;DHT22;231;48.120;11.576;2023-04-24T07:49:07;14.90;96.40
490;DHT22;231;48.120;11.576;2023-04-24T07:51:33;14.70;98.90
490;DHT22;231;48.120;11.576;2023-04-24T07:54:03;14.60;99.90
490;DHT22;231;48.120;11.576;2023-04-24T07:56:33;14.60;99.90
490;DHT22;231;48.120;11.576;2023-04-24T07:59:04;14.40;99.90
490;DHT22;231;48.120;11.576;2023-04-24T08:01:31;14.30;99.90
490;DHT22;231;48.120;11.576;2023-04-24T08:03:58;14.40;99.90
490;DHT22;231;48.120;11.576;2023-04-24T08:06:25;14.50;99.90
490;DHT22;231;48.120;11.576;2023-04-24T08:08:56;14.60;99.90
490;DHT22;231;48.120;11.576;2023-04-24T08:11:23;14.70;99.90
490;DHT22;231;48.120;11.576;2023-04-24T08:13:51;14.80;99.90
490;DHT22;231;48.120;11.576;2023-04-24T08:16:18;15.00;99.90
490;DHT22;231;48.120;11.576;2023-04-24T08:18:45;15.20;99.90
490;DHT22;231;48.120;11.576;2023-04-24T08:21:12;15.00;94.90
490;DHT22;231;48.120;11.576;2023-04-24T08:23:42;14.90;99.50
490;DHT22;231;48.120;11.576;2023-04-24T08:26:09;14.50;91.20
490;DHT22;231;48.120;11.576;2023-04-24T08:28:37;14.20;81.30
490;DHT22;231;48.120;11.576;2023-04-24T08:31:05;13.90;94.50
490;DHT22;231;48.120;11.576;2023-04-24T08:33:32;13.80;97.90
490;DHT22;231;48.120;11.576;2023-04-24T08:36:01;13.60;97.90
490;DHT22;231;48.120;11.576;2023-04-24T08:38:28;13.40;98.40
490;DHT22;231;48.120;11.576;2023-04-24T08:40:57;13.30;99.90
490;DHT22;231;48.120;11.576;2023-04-24T08:43:25;13.10;99.90
490;DHT22;231;48.120;11.576;2023-04-24T08:45:52;12.70;99.80
490;DHT22;231;48.120;11.576;2023-04-24T08:48:22;12.40;99.90
490;DHT22;231;48.120;11.576;2023-04-24T08:50:50;12.10;99.90
490;DHT22;231;48.120;11.576;2023-04-24T08:53:18;12.20;99.90
490;DHT22;231;48.120;11.576;2023-04-24T08:55:47;12.50;99.90
490;DHT22;231;48.120;11.576;2023-04-24T08:58:16;12.70;99.90
490;DHT22;231;48.120;11.576;2023-04-24T09:00:43;12.70;99.90
490;DHT22;231;48.120;11.576;2023-04-24T09:03:13;12.50;99.90
490;DHT22;231;48.120;11.576;2023-04-24T09:05:43;12.20;99.90
490;DHT22;231;48.120;11.576;2023-04-24T09:08:13;12.00;99.90
490;DHT22;231;48.120;11.576;2023-04-24T09:10:41;11.80;99.90
490;DHT22;231;48.120;11.576;2023-04-24T09:13:08;11.60;99.90
490;DHT22;231;48.120;11.576;2023-04-24T09:15:35;11.50;99.90
490;DHT22;231;48.120;11.576;2023-04-24T09:18:03;11.50;99.90
490;DHT22;231;48.120;11.576;2023-04-24T09:20:31;11.40;99.90
490;DHT22;231;48.120;11.576;2023-04-24T09:22:59;11.50;99.90
490;DHT22;231;48.120;11.576;2023-04-24T09:25:31;11.70;99.90
490;DHT22;231;48.120;11.576;2023-04-24T09:28:01;11.80;99.90
490;DHT22;231;48.120;11.576;2023-04-24T09:30:28;12.10;99.90
490;DHT22;231;48.120;11.576;2023-04-24T09:33:10;12.20;99.90
490;DHT22;231;48.120;11.576;2023-04-24T09:35:40;12.30;99.90
490;DHT22;231;48.120;11.576;2023-04-24T09:38:09;12.40;99.90
490;DHT22;231;48.120;11.576;2023-04-24T09:40:36;12.80;99.90
490;DHT22;231;48.120;11.576;2023-04-24T09:43:03;13.50;99.90
490;DHT22;231;48.120;11.576;2023-04-24T09:45:36;14.20;99.90
490;DHT22;231;48.120;11.576;2023-04-24T09:48:03;14.80;99.90
490;DHT22;231;48.120;11.576;2023-04-24T09:50:32;15.30;99.90
490;DHT22;231;48.120;11.576;2023-04-24T09:53:02;15.50;99.90
490;DHT22;231;48.120;11.576;2023-04-24T09:55:30;15.80;99.90
490;DHT22;231;48.120;11.576;2023-04-24T09:57:58;16.10;99.90
490;DHT22;231;48.120;11.576;2023-04-24T10:00:28;16.30;99.90
490;DHT22;231;48.120;11.576;2023-04-24T10:02:59;16.50;99.90
490;DHT22;231;48.120;11.576;2023-04-24T10:05:28;17.00;99.90
490;DHT22;231;48.120;11.576;2023-04-24T10:08:01;17.40;99.90
490;DHT22;231;48.120;11.576;2023-04-24T10:10:30;17.70;99.90
490;DHT22;231;48.120;11.576;2023-04-24T10:12:59;18.00;99.60
490;DHT22;231;48.120;11.576;2023-04-24T10:15:26;18.20;95.50
490;DHT22;231;48.120;11.576;2023-04-24T10:17:53;18.40;96.70
490;DHT22;231;48.120;11.576;2023-04-24T10:20:21;18.60;96.60
490;DHT22;231;48.120;11.576;2023-04-24T10:22:50;18.60;84.80
490;DHT22;231;48.120;11.576;2023-04-24T10:25:19;18.40;74.10
490;DHT22;231;48.120;11.576;2023-04-24T10:27:49;18.30;90.10
490;DHT22;231;48.120;11.576;2023-04-24T10:30:17;18.30;82.70
490;DHT22;231;48.120;11.576;2023-04-24T10:32:44;18.60;98.70
490;DHT22;231;48.120;11.576;2023-04-24T10:35:13;19.00;98.40
490;DHT22;231;48.120;11.576;2023-04-24T10:37:50;19.70;99.90
490;DHT22;231;48.120;11.576;2023-04-24T10:40:19;19.90;97.30
490;DHT22;231;48.120;11.576;2023-04-24T10:42:52;19.70;77.20
490;DHT22;231;48.120;11.576;2023-04-24T10:45:21;19.40;71.30
490;DHT22;231;48.120;11.576;2023-04-24T10:47:58;19.00;62.10
490;DHT22;231;48.120;11.576;2023-04-24T10:50:27;18.50;45.50
490;DHT22;231;48.120;11.576;2023-04-24T10:53:05;18.30;25.50
490;DHT22;231;48.120;11.576;2023-04-24T10:55:43;18.10;20.60
490;DHT22;231;48.120;11.576;2023-04-24T10:58:12;17.70;49.90
490;DHT22;231;48.120;11.576;2023-04-24T11:00:41;16.40;49.20
490;DHT22;231;48.120;11.576;2023-04-24T11:03:23;15.20;30.00
490;DHT22;231;48.120;11.576;2023-04-24T11:05:52;14.20;36.30
490;DHT22;231;48.120;11.576;2023-04-24T11:08:26;13.70;45.10
490;DHT22;231;48.120;11.576;2023-04-24T11:10:59;13.40;56.60
490;DHT22;231;48.120;11.576;2023-04-24T11:14:00;13.50;71.10
490;DHT22;231;48.120;11.576;2023-04-24T11:16:19;13.90;80.00
490;DHT22;231;48.120;11.576;2023-04-24T11:18:50;14.50;67.90
490;DHT22;231;48.120;11.576;2023-04-24T11:21:21;15.20;58.70
490;DHT22;231;48.120;11.576;2023-04-24T11:23:49;16.30;51.10
490;DHT22;231;48.120;11.576;2023-04-24T11:26:19;17.60;43.20
490;DHT22;231;48.120;11.576;2023-04-24T11:28:50;18.80;27.70
490;DHT22;231;48.120;11.576;2023-04-24T11:31:37;19.70;20.40
490;DHT22;231;48.120;11.576;2023-04-24T11:34:08;20.50;15.00
490;DHT22;231;48.120;11.576;2023-04-24T11:36:36;21.20;10.50
490;DHT22;231;48.120;11.576;2023-04-24T11:39:03;21.70;9.60
490;DHT22;231;48.120;11.576;2023-04-24T11:41:32;21.80;7.30
490;DHT22;231;48.120;11.576;2023-04-24T11:44:01;21.80;6.80
490;DHT22;231;48.120;11.576;2023-04-24T11:46:29;21.90;7.30
490;DHT22;231;48.120;11.576;2023-04-24T11:48:57;22.30;8.40
490;DHT22;231;48.120;11.576;2023-04-24T11:51:25;23.00;6.50
490;DHT22;231;48.120;11.576;2023-04-24T11:53:53;23.30;5.60
490;DHT22;231;48.120;11.576;2023-04-24T11:56:22;23.10;4.50
490;DHT22;231;48.120;11.576;2023-04-24T11:58:52;22.50;3.60
490;DHT22;231;48.120;11.576;2023-04-24T12:01:21;21.90;2.10
490;DHT22;231;48.120;11.576;2023-04-24T12:03:49;21.00;2.60
490;DHT22;231;48.120;11.576;2023-04-24T12:06:17;20.10;3.00
490;DHT22;231;48.120;11.576;2023-04-24T12:08:46;19.20;4.00
490;DHT22;231;48.120;11.576;2023-04-24T12:11:16;18.60;5.10
490;DHT22;231;48.120;11.576;2023-04-24T12:13:44;18.30;5.90
490;DHT22;231;48.120;11.576;2023-04-24T12:16:12;18.50;4.70
490;DHT22;231;48.120;11.576;2023-04-24T12:18:44;18.60;4.90
490;DHT22;231;48.120;11.576;2023-04-24T12:21:15;18.70;4.30
490;DHT22;231;48.120;11.576;2023-04-24T12:23:43;18.50;3.70
490;DHT22;231;48.120;11.576;2023-04-24T12:26:11;18.40;3.70
490;DHT22;231;48.120;11.576;2023-04-24T12:28:39;18.30;3.60
490;DHT22;231;48.120;11.576;2023-04-24T12:31:06;18.10;3.00
490;DHT22;231;48.120;11.576;2023-04-24T12:33:34;17.90;3.40
490;DHT22;231;48.120;11.576;2023-04-24T12:36:03;18.10;3.90
490;DHT22;231;48.120;11.576;2023-04-24T12:38:30;18.80;3.60
490;DHT22;231;48.120;11.576;2023-04-24T12:41:06;19.60;2.10
490;DHT22;231;48.120;11.576;2023-04-24T12:43:34;20.30;1.20
490;DHT22;231;48.120;11.576;2023-04-24T12:46:01;20.40;1.00
490;DHT22;231;48.120;11.576;2023-04-24T12:48:29;20.30;1.00
490;DHT22;231;48.120;11.576;2023-04-24T12:50:57;20.20;1.00
490;DHT22;231;48.120;11.576;2023-04-24T12:53:28;20.00;1.00
490;DHT22;231;48.120;11.576;2023-04-24T12:55:58;20.00;1.00
490;DHT22;231;48.120;11.576;2023-04-24T12:58:25;19.90;1.00
490;DHT22;231;48.120;11.576;2023-04-24T13:00:52;19.90;2.20
490;DHT22;231;48.120;11.576;2023-04-24T13:03:19;19.90;2.50
490;DHT22;231;48.120;11.576;2023-04-24T13:05:47;19.90;2.30
490;DHT22;231;48.120;11.576;2023-04-24T13:08:14;19.90;2.00
490;DHT22;231;48.120;11.576;2023-04-24T13:10:43;20.10;2.00
490;DHT22;231;48.120;11.576;2023-04-24T13:13:10;20.10;1.20
490;DHT22;231;48.120;11.576;2023-04-24T13:15:37;19.90;1.20
490;DHT22;231;48.120;11.576;2023-04-24T13:18:04;19.60;1.50
490;DHT22;231;48.120;11.576;2023-04-24T13:20:32;19.50;1.50
490;DHT22;231;48.120;11.576;2023-04-24T13:23:00;19.10;1.60
490;DHT22;231;48.120;11.576;2023-04-24T13:25:27;18.70;2.60
490;DHT22;231;48.120;11.576;2023-04-24T13:27:56;18.30;3.00
490;DHT22;231;48.120;11.576;2023-04-24T13:30:23;18.00;3.60
490;DHT22;231;48.120;11.576;2023-04-24T13:32:50;18.00;4.20
490;DHT22;231;48.120;11.576;2023-04-24T13:35:17;17.90;2.10
490;DHT22;231;48.120;11.576;2023-04-24T13:37:43;17.80;1.30
490;DHT22;231;48.120;11.576;2023-04-24T13:40:11;17.90;1.00
490;DHT22;231;48.120;11.576;2023-04-24T13:42:38;18.00;1.00
490;DHT22;231;48.120;11.576;2023-04-24T13:45:07;18.20;1.00
490;DHT22;231;48.120;11.576;2023-04-24T13:47:37;18.30;1.00
490;DHT22;231;48.120;11.576;2023-04-24T13:50:07;18.30;1.00
490;DHT22;231;48.120;11.576;2023-04-24T13:52:34;18.40;1.00
490;DHT22;231;48.120;11.576;2023-04-24T13:55:01;18.50;1.00
490;DHT22;231;48.120;11.576;2023-04-24T13:57:27;18.50;1.00
490;DHT22;231;48.120;11.576;2023-04-24T13:59:57;18.60;1.00
490;DHT22;231;48.120;11.576;2023-04-24T14:02:28;18.60;1.00
490;DHT22;231;48.120;11.576;2023-04-24T14:04:54;18.50;1.00
490;DHT22;231;48.120;11.576;2023-04-24T14:07:21;18.40;1.00
490;DHT22;231;48.120;11.576;2023-04-24T14:09:48;18.10;1.00
490;DHT22;231;48.120;11.576;2023-04-24T14:12:15;17.80;1.30
490;DHT22;231;48.120;11.576;2023-04-24T14:14:45;17.80;1.40
490;DHT22;231;48.120;11.576;2023-04-24T14:17:12;18.10;1.00
490;DHT22;231;48.120;11.576;2023-04-24T14:19:40;18.30;1.00
490;DHT22;231;48.120;11.576;2023-04-24T14:22:07;18.30;1.00
490;DHT22;231;48.120;11.576;2023-04-24T14:24:34;18.40;1.00
490;DHT22;231;48.120;11.576;2023-04-24T14:27:01;18.40;1.00
490;DHT22;231;48.120;11.576;2023-04-24T14:29:28;18.50;1.00
490;DHT22;231;48.120;11.576;2023-04-24T14:31:55;18.70;1.00
490;DHT22;231;48.120;11.576;2023-04-24T14:34:22;19.00;1.00
490;DHT22;231;48.120;11.576;2023-04-24T14:36:51;19.20;1.00
490;DHT22;231;48.120;11.576;2023-04-24T14:39:18;19.30;1.00
490;DHT22;231;48.120;11.576;2023-04-24T14:41:46;19.30;1.00
490;DHT22;231;48.120;11.576;2023-04-24T14:44:12;19.30;1.00
490;DHT22;231;48.120;11.576;2023-04-24T14:46:39;19.40;1.00
490;DHT22;231;48.120;11.576;2023-04-24T14:49:06;19.40;1.00
490;DHT22;231;48.120;11.576;2023-04-24T14:51:35;19.30;1.00
490;DHT22;231;48.120;11.576;2023-04-24T14:54:03;19.20;1.00
490;DHT22;231;48.120;11.576;2023-04-24T14:56:30;19.00;1.00
490;DHT22;231;48.120;11.576;2023-04-24T14:58:57;18.80;1.00
490;DHT22;231;48.120;11.576;2023-04-24T15:01:24;18.70;1.00
490;DHT22;231;48.120;11.576;2023-04-24T15:03:51;18.60;1.00
490;DHT22;231;48.120;11.576;2023-04-24T15:06:18;18.50;1.00
490;DHT22;231;48.120;11.576;2023-04-24T15:08:45;18.30;1.00
490;DHT22;231;48.120;11.576;2023-04-24T15:11:14;18.00;1.00
490;DHT22;231;48.120;11.576;2023-04-24T15:13:41;17.80;1.00
490;DHT22;231;48.120;11.576;2023-04-24T15:16:07;17.60;1.00
490;DHT22;231;48.120;11.576;2023-04-24T15:18:35;17.40;1.00
490;DHT22;231;48.120;11.576;2023-04-24T15:21:02;17.20;1.00
490;DHT22;231;48.120;11.576;2023-04-24T15:23:28;17.20;1.00
490;DHT22;231;48.120;11.576;2023-04-24T15:25:55;17.30;1.00
490;DHT22;231;48.120;11.576;2023-04-24T15:28:24;17.30;1.00
490;DHT22;231;48.120;11.576;2023-04-24T15:30:51;17.40;1.00
490;DHT22;231;48.120;11.576;2023-04-24T15:33:18;17.60;1.00
490;DHT22;231;48.120;11.576;2023-04-24T15:35:45;17.60;1.00
490;DHT22;231;48.120;11.576;2023-04-24T15:38:12;17.50;1.00
490;DHT22;231;48.120;11.576;2023-04-24T15:40:39;17.30;1.00
490;DHT22;231;48.120;11.576;2023-04-24T15:43:06;17.10;1.00
490;DHT22;231;48.120;11.576;2023-04-24T15:45:34;17.20;1.00
490;DHT22;231;48.120;11.576;2023-04-24T15:48:01;17.20;1.00
490;DHT22;231;48.120;11.576;2023-04-24T15:50:28;17.10;1.00
490;DHT22;231;48.120;11.576;2023-04-24T15:52:55;17.00;1.00
490;DHT22;231;48.120;11.576;2023-04-24T15:55:22;16.90;1.00
490;DHT22;231;48.120;11.576;2023-04-24T15:57:49;16.80;1.00
490;DHT22;231;48.120;11.576;2023-04-24T16:00:17;16.80;1.00
490;DHT22;231;48.120;11.576;2023-04-24T16:02:45;16.80;1.00
490;DHT22;231;48.120;11.576;2023-04-24T16:05:13;16.70;1.00
490;DHT22;231;48.120;11.576;2023-04-24T16:07:40;16.70;1.00
490;DHT22;231;48.120;11.576;2023-04-24T16:10:08;16.70;1.00
490;DHT22;231;48.120;11.576;2023-04-24T16:12:35;16.60;1.00
490;DHT22;231;48.120;11.576;2023-04-24T16:15:03;16.50;1.00
490;DHT22;231;48.120;11.576;2023-04-24T16:17:30;16.50;1.00
490;DHT22;231;48.120;11.576;2023-04-24T16:19:58;16.50;1.00
490;DHT22;231;48.120;11.576;2023-04-24T16:22:26;16.40;1.00
490;DHT22;231;48.120;11.576;2023-04-24T16:24:53;16.30;1.00
490;DHT22;231;48.120;11.576;2023-04-24T16:27:19;16.10;1.00
490;DHT22;231;48.120;11.576;2023-04-24T16:29:46;15.90;1.00
490;DHT22;231;48.120;11.576;2023-04-24T16:32:13;15.80;1.00
490;DHT22;231;48.120;11.576;2023-04-24T16:34:40;15.70;1.00
490;DHT22;231;48.120;11.576;2023-04-24T16:37:08;15.60;1.00